createdAt,value
2018-09-02T00:00:12.749Z,66.18
2018-09-02T00:01:18.428Z,66.28
2018-09-02T00:02:23.860Z,66.27
2018-09-02T00:03:29.519Z,66.34
2018-09-02T00:04:35.024Z,66.35
2018-09-02T00:05:39.793Z,66.53
2018-09-02T00:06:45.821Z,66.48
2018-09-02T00:07:53.274Z,66.62
2018-09-02T00:08:58.023Z,66.95
2018-09-02T00:10:02.760Z,66.89
2018-09-02T00:11:07.593Z,67.08
2018-09-02T00:12:12.380Z,67.00
2018-09-02T00:13:17.073Z,67.08
2018-09-02T00:14:22.073Z,66.92
2018-09-02T00:15:26.792Z,67.08
2018-09-02T00:16:31.519Z,66.92
2018-09-02T00:17:36.214Z,66.99
2018-09-02T00:18:41.053Z,67.04
2018-09-02T00:19:45.760Z,66.80
2018-09-02T00:20:50.779Z,66.83
2018-09-02T00:21:55.475Z,66.86
2018-09-02T00:23:00.179Z,66.80
2018-09-02T00:24:05.682Z,66.75
2018-09-02T00:25:11.238Z,66.97
2018-09-02T00:26:15.936Z,67.35
2018-09-02T00:27:20.943Z,67.74
2018-09-02T00:28:25.654Z,68.16
2018-09-02T00:29:30.424Z,68.47
2018-09-02T00:30:35.151Z,68.95
2018-09-02T00:31:39.843Z,69.28
2018-09-02T00:32:45.292Z,69.61
2018-09-02T00:33:51.092Z,69.96
2018-09-02T00:34:57.343Z,70.08
2018-09-02T00:36:02.039Z,70.28
2018-09-02T00:37:06.763Z,70.44
2018-09-02T00:38:11.532Z,70.15
2018-09-02T00:39:17.222Z,70.40
2018-09-02T00:40:22.332Z,70.43
2018-09-02T00:41:27.019Z,70.20
2018-09-02T00:42:31.776Z,70.31
2018-09-02T00:43:36.513Z,69.89
2018-09-02T00:44:41.293Z,70.05
2018-09-02T00:45:46.104Z,70.28
2018-09-02T00:46:51.391Z,70.54
2018-09-02T00:47:56.391Z,71.44
2018-09-02T00:49:01.209Z,71.78
2018-09-02T00:50:06.284Z,72.20
2018-09-02T00:51:11.018Z,72.51
2018-09-02T00:52:15.736Z,73.08
2018-09-02T00:53:20.839Z,73.51
2018-09-02T00:54:25.520Z,73.65
2018-09-02T00:55:30.242Z,73.91
2018-09-02T00:56:35.188Z,74.44
2018-09-02T00:57:39.922Z,74.54
2018-09-02T00:58:44.647Z,74.71
2018-09-02T00:59:49.784Z,74.85
2018-09-02T01:00:54.503Z,75.41
2018-09-02T01:01:59.232Z,75.57
2018-09-02T01:03:03.972Z,76.02
2018-09-02T01:04:08.651Z,76.05
2018-09-02T01:05:14.711Z,76.20
2018-09-02T01:06:32.137Z,76.47
2018-09-02T01:07:38.480Z,76.84
2018-09-02T01:08:43.992Z,76.92
2018-09-02T01:09:49.065Z,76.65
2018-09-02T01:10:53.796Z,77.29
2018-09-02T01:11:58.565Z,77.10
2018-09-02T01:13:04.833Z,77.26
2018-09-02T01:14:09.835Z,77.50
2018-09-02T01:15:15.567Z,78.02
2018-09-02T01:16:20.316Z,78.01
2018-09-02T01:17:25.069Z,78.16
2018-09-02T01:18:30.753Z,78.07
2018-09-02T01:19:36.040Z,78.04
2018-09-02T01:20:41.441Z,78.27
2018-09-02T01:21:46.166Z,78.39
2018-09-02T01:22:50.991Z,78.57
2018-09-02T01:23:55.733Z,78.50
2018-09-02T01:25:00.526Z,78.50
2018-09-02T01:26:05.744Z,79.01
2018-09-02T01:27:10.488Z,79.13
2018-09-02T01:28:15.360Z,79.12
2018-09-02T01:29:20.394Z,78.96
2018-09-02T01:30:25.385Z,79.13
2018-09-02T01:31:30.129Z,78.60
2018-09-02T01:32:35.239Z,78.54
2018-09-02T01:33:39.975Z,78.44
2018-09-02T01:34:44.734Z,78.24
2018-09-02T01:35:49.508Z,78.11
2018-09-02T01:36:54.262Z,77.94
2018-09-02T01:37:59.075Z,77.58
2018-09-02T01:39:04.984Z,77.79
2018-09-02T01:40:10.312Z,77.61
2018-09-02T01:41:15.057Z,77.60
2018-09-02T01:42:19.785Z,77.19
2018-09-02T01:43:24.564Z,77.22
2018-09-02T01:44:29.550Z,76.81
2018-09-02T01:45:34.901Z,76.98
2018-09-02T01:46:39.643Z,76.59
2018-09-02T01:47:44.562Z,76.75
2018-09-02T01:48:49.314Z,76.56
2018-09-02T01:49:54.674Z,76.62
2018-09-02T01:50:59.410Z,76.71
2018-09-02T01:52:04.750Z,76.45
2018-09-02T01:53:09.501Z,76.50
2018-09-02T01:54:14.298Z,76.06
2018-09-02T01:55:19.048Z,76.08
2018-09-02T01:56:23.769Z,75.85
2018-09-02T01:57:29.555Z,75.86
2018-09-02T01:58:34.588Z,75.67
2018-09-02T01:59:39.389Z,75.35
2018-09-02T02:00:44.151Z,75.64
2018-09-02T02:01:48.981Z,75.47
2018-09-02T02:02:53.717Z,75.40
2018-09-02T02:03:58.459Z,75.33
2018-09-02T02:05:03.521Z,75.09
2018-09-02T02:06:08.292Z,75.21
2018-09-02T02:07:13.957Z,75.33
2018-09-02T02:08:18.725Z,75.42
2018-09-02T02:09:23.530Z,75.87
2018-09-02T02:10:28.818Z,75.85
2018-09-02T02:11:33.561Z,75.99
2018-09-02T02:12:38.297Z,76.22
2018-09-02T02:13:43.097Z,76.16
2018-09-02T02:14:47.796Z,76.20
2018-09-02T02:15:52.618Z,76.18
2018-09-02T02:16:58.168Z,76.18
2018-09-02T02:18:02.968Z,75.80
2018-09-02T02:19:08.214Z,75.87
2018-09-02T02:20:12.988Z,75.97
2018-09-02T02:21:17.720Z,76.03
2018-09-02T02:22:22.490Z,75.99
2018-09-02T02:23:27.588Z,75.83
2018-09-02T02:24:32.816Z,75.93
2018-09-02T02:25:37.571Z,75.94
2018-09-02T02:26:42.448Z,75.91
2018-09-02T02:27:47.135Z,75.84
2018-09-02T02:28:51.764Z,75.99
2018-09-02T02:29:56.885Z,75.96
2018-09-02T02:31:03.478Z,76.00
2018-09-02T02:32:08.194Z,75.90
2018-09-02T02:33:13.457Z,76.02
2018-09-02T02:34:18.128Z,75.83
2018-09-02T02:35:24.269Z,75.68
2018-09-02T02:36:29.377Z,75.75
2018-09-02T02:37:33.993Z,75.76
2018-09-02T02:38:38.643Z,75.84
2018-09-02T02:39:43.267Z,75.78
2018-09-02T02:40:47.856Z,75.52
2018-09-02T02:41:53.025Z,75.71
2018-09-02T02:42:58.890Z,75.64
2018-09-02T02:44:03.577Z,75.81
2018-09-02T02:45:08.228Z,75.82
2018-09-02T02:46:13.138Z,75.88
2018-09-02T02:47:17.766Z,75.96
2018-09-02T02:48:22.416Z,76.00
2018-09-02T02:49:27.471Z,76.10
2018-09-02T02:50:32.078Z,76.20
2018-09-02T02:51:36.747Z,76.03
2018-09-02T02:52:46.465Z,76.52
2018-09-02T02:53:52.030Z,76.43
2018-09-02T02:54:56.721Z,76.54
2018-09-02T02:56:01.802Z,76.43
2018-09-02T02:57:06.569Z,76.29
2018-09-02T02:58:11.495Z,76.32
2018-09-02T02:59:16.261Z,76.65
2018-09-02T03:00:21.084Z,76.54
2018-09-02T03:01:25.869Z,76.46
2018-09-02T03:02:31.181Z,76.58
2018-09-02T03:03:35.962Z,76.99
2018-09-02T03:04:42.298Z,76.81
2018-09-02T03:05:47.829Z,76.89
2018-09-02T03:06:52.554Z,76.74
2018-09-02T03:07:57.299Z,76.91
2018-09-02T03:09:02.497Z,77.12
2018-09-02T03:10:07.257Z,76.85
2018-09-02T03:11:12.028Z,77.36
2018-09-02T03:12:16.857Z,77.27
2018-09-02T03:13:21.598Z,77.33
2018-09-02T03:14:26.344Z,77.17
2018-09-02T03:15:31.597Z,77.39
2018-09-02T03:16:36.576Z,76.98
2018-09-02T03:17:41.381Z,76.79
2018-09-02T03:18:46.244Z,77.05
2018-09-02T03:19:50.991Z,77.27
2018-09-02T03:20:55.749Z,76.87
2018-09-02T03:22:01.006Z,77.04
2018-09-02T03:23:05.722Z,76.86
2018-09-02T03:24:11.309Z,76.95
2018-09-02T03:25:15.912Z,76.90
2018-09-02T03:26:20.516Z,76.78
2018-09-02T03:27:25.200Z,76.70
2018-09-02T03:28:30.411Z,76.89
2018-09-02T03:29:35.337Z,76.87
2018-09-02T03:30:39.953Z,76.89
2018-09-02T03:31:44.593Z,77.00
2018-09-02T03:32:49.228Z,77.16
2018-09-02T03:33:54.093Z,77.24
2018-09-02T03:34:59.534Z,76.96
2018-09-02T03:36:04.156Z,77.18
2018-09-02T03:37:09.357Z,77.40
2018-09-02T03:38:13.982Z,77.41
2018-09-02T03:39:18.612Z,77.47
2018-09-02T03:40:23.251Z,77.54
2018-09-02T03:41:28.262Z,77.36
2018-09-02T03:42:32.920Z,77.44
2018-09-02T03:43:37.531Z,77.48
2018-09-02T03:44:42.205Z,77.63
2018-09-02T03:45:46.953Z,77.42
2018-09-02T03:46:51.600Z,77.41
2018-09-02T03:47:56.550Z,77.54
2018-09-02T03:49:01.220Z,77.55
2018-09-02T03:50:05.876Z,77.23
2018-09-02T03:51:10.539Z,77.28
2018-09-02T03:52:15.305Z,77.39
2018-09-02T03:53:19.938Z,77.38
2018-09-02T03:54:25.028Z,77.75
2018-09-02T03:55:29.840Z,77.56
2018-09-02T03:56:34.477Z,77.48
2018-09-02T03:57:39.101Z,77.74
2018-09-02T03:58:44.613Z,77.83
2018-09-02T03:59:49.470Z,77.31
2018-09-02T04:00:54.563Z,77.41
2018-09-02T04:01:59.230Z,77.35
2018-09-02T04:03:03.906Z,77.36
2018-09-02T04:04:08.582Z,77.56
2018-09-02T04:05:13.225Z,77.46
2018-09-02T04:06:17.813Z,77.82
2018-09-02T04:07:22.874Z,77.58
2018-09-02T04:08:27.467Z,78.15
2018-09-02T04:09:32.101Z,78.17
2018-09-02T04:10:36.719Z,78.22
2018-09-02T04:11:41.848Z,78.44
2018-09-02T04:12:46.490Z,78.86
2018-09-02T04:13:51.778Z,78.92
2018-09-02T04:14:56.414Z,78.66
2018-09-02T04:16:01.106Z,78.85
2018-09-02T04:17:05.741Z,78.75
2018-09-02T04:18:10.398Z,78.96
2018-09-02T04:19:15.094Z,79.32
2018-09-02T04:20:25.293Z,79.68
2018-09-02T04:21:30.007Z,79.79
2018-09-02T04:22:34.758Z,79.64
2018-09-02T04:23:39.512Z,79.76
2018-09-02T04:24:44.218Z,79.65
2018-09-02T04:25:49.460Z,79.88
2018-09-02T04:26:54.653Z,79.98
2018-09-02T04:27:59.512Z,79.81
2018-09-02T04:29:04.260Z,79.86
2018-09-02T04:30:08.972Z,79.74
2018-09-02T04:31:13.901Z,79.99
2018-09-02T04:32:18.713Z,79.69
2018-09-02T04:33:23.424Z,80.12
2018-09-02T04:34:29.205Z,80.14
2018-09-02T04:35:33.952Z,80.06
2018-09-02T04:36:38.713Z,80.13
2018-09-02T04:37:43.685Z,80.09
2018-09-02T04:38:49.616Z,80.60
2018-09-02T04:39:54.745Z,80.60
2018-09-02T04:40:59.487Z,80.62
2018-09-02T04:42:04.238Z,80.71
2018-09-02T04:43:09.483Z,80.62
2018-09-02T04:44:14.237Z,80.34
2018-09-02T04:45:19.057Z,80.79
2018-09-02T04:46:24.229Z,80.46
2018-09-02T04:47:29.076Z,80.86
2018-09-02T04:48:33.812Z,80.70
2018-09-02T04:49:39.306Z,80.60
2018-09-02T04:50:45.443Z,81.05
2018-09-02T04:51:50.092Z,80.92
2018-09-02T04:52:55.225Z,81.08
2018-09-02T04:53:59.908Z,80.88
2018-09-02T04:55:04.501Z,81.17
2018-09-02T04:56:09.140Z,81.45
2018-09-02T04:57:13.822Z,81.67
2018-09-02T04:58:18.505Z,81.53
2018-09-02T04:59:23.641Z,81.86
2018-09-02T05:00:28.382Z,82.09
2018-09-02T05:01:32.929Z,82.15
2018-09-02T05:02:37.640Z,82.03
2018-09-02T05:03:42.286Z,82.21
2018-09-02T05:04:47.286Z,81.79
2018-09-02T05:05:52.320Z,81.91
2018-09-02T05:06:56.940Z,81.89
2018-09-02T05:08:01.594Z,81.80
2018-09-02T05:09:06.869Z,81.82
2018-09-02T05:10:11.483Z,82.02
2018-09-02T05:11:16.129Z,82.23
2018-09-02T05:12:21.200Z,81.98
2018-09-02T05:13:27.401Z,82.41
2018-09-02T05:14:32.700Z,82.13
2018-09-02T05:15:37.342Z,82.39
2018-09-02T05:16:43.046Z,82.88
2018-09-02T05:17:47.770Z,82.86
2018-09-02T05:18:52.803Z,82.88
2018-09-02T05:19:58.377Z,83.01
2018-09-02T05:21:03.160Z,82.92
2018-09-02T05:22:07.861Z,83.32
2018-09-02T05:23:12.513Z,83.24
2018-09-02T05:24:17.191Z,83.23
2018-09-02T05:25:22.960Z,83.51
2018-09-02T05:26:27.772Z,83.22
2018-09-02T05:27:32.929Z,83.29
2018-09-02T05:28:37.729Z,82.83
2018-09-02T05:29:42.558Z,82.79
2018-09-02T05:33:17.762Z,82.60
2018-09-02T05:34:22.529Z,82.56
2018-09-02T05:35:27.349Z,82.60
2018-09-02T05:36:32.127Z,82.41
2018-09-02T05:37:36.914Z,82.11
2018-09-02T05:38:42.160Z,81.58
2018-09-02T05:39:47.701Z,81.46
2018-09-02T05:40:53.379Z,81.43
2018-09-02T05:41:58.108Z,81.67
2018-09-02T05:43:02.878Z,81.25
2018-09-02T05:44:08.373Z,81.28
2018-09-02T05:45:13.901Z,81.28
2018-09-02T05:46:18.656Z,81.67
2018-09-02T05:47:23.416Z,81.72
2018-09-02T05:48:28.165Z,81.46
2018-09-02T05:49:32.893Z,82.05
2018-09-02T05:50:37.646Z,81.94
2018-09-02T05:51:42.778Z,81.69
2018-09-02T05:52:47.525Z,81.80
2018-09-02T05:53:52.249Z,81.46
2018-09-02T05:54:56.907Z,81.39
2018-09-02T05:56:01.548Z,81.08
2018-09-02T05:57:06.404Z,81.01
2018-09-02T05:58:11.473Z,80.77
2018-09-02T05:59:16.089Z,80.74
2018-09-02T06:00:20.689Z,80.50
2018-09-02T06:01:27.745Z,80.47
2018-09-02T06:02:32.782Z,80.43
2018-09-02T06:03:39.217Z,80.32
2018-09-02T06:04:44.300Z,80.21
2018-09-02T06:05:49.758Z,80.23
2018-09-02T06:06:54.451Z,80.08
2018-09-02T06:07:59.360Z,80.14
2018-09-02T06:09:05.526Z,79.94
2018-09-02T06:10:10.190Z,80.00
2018-09-02T06:11:15.264Z,79.57
2018-09-02T06:12:20.753Z,79.51
2018-09-02T06:13:25.392Z,79.13
2018-09-02T06:14:30.173Z,78.88
2018-09-02T06:15:35.192Z,78.87
2018-09-02T06:16:39.985Z,78.96
2018-09-02T06:17:44.998Z,78.87
2018-09-02T06:18:49.629Z,79.13
2018-09-02T06:19:54.234Z,79.25
2018-09-02T06:20:58.854Z,78.75
2018-09-02T06:22:03.559Z,78.54
2018-09-02T06:23:08.183Z,78.47
2018-09-02T06:24:13.334Z,78.38
2018-09-02T06:25:19.677Z,78.32
2018-09-02T06:26:24.533Z,78.10
2018-09-02T06:27:29.360Z,77.38
2018-09-02T06:28:34.139Z,77.13
2018-09-02T06:29:38.854Z,76.92
2018-09-02T06:30:44.953Z,76.52
2018-09-02T06:31:50.669Z,75.25
2018-09-02T06:32:55.511Z,75.17
2018-09-02T06:34:00.771Z,74.19
2018-09-02T06:35:05.598Z,73.37
2018-09-02T06:36:10.345Z,72.51
2018-09-02T06:37:16.002Z,71.33
2018-09-02T06:38:20.748Z,71.23
2018-09-02T06:39:26.620Z,70.18
2018-09-02T06:40:31.568Z,69.02
2018-09-02T06:41:36.965Z,67.65
2018-09-02T06:42:41.794Z,67.11
2018-09-02T06:43:47.243Z,67.24
2018-09-02T06:44:52.047Z,66.54
2018-09-02T06:45:57.088Z,65.00
2018-09-02T06:47:01.852Z,64.77
2018-09-02T06:48:06.777Z,64.15
2018-09-02T06:49:11.906Z,63.39
2018-09-02T06:50:17.141Z,62.61
2018-09-02T06:51:23.135Z,61.47
2018-09-02T06:52:27.873Z,61.01
2018-09-02T06:53:33.285Z,60.69
2018-09-02T06:54:37.929Z,59.64
2018-09-02T06:55:42.681Z,58.81
2018-09-02T06:56:48.457Z,58.28
2018-09-02T06:57:53.093Z,58.73
2018-09-02T06:58:57.749Z,57.88
2018-09-02T07:00:03.268Z,56.31
2018-09-02T07:01:09.416Z,55.44
2018-09-02T07:02:14.044Z,55.85
2018-09-02T07:03:19.131Z,56.33
2018-09-02T07:04:23.749Z,56.48
2018-09-02T07:05:37.507Z,55.77
2018-09-02T07:06:42.183Z,54.25
2018-09-02T07:07:47.738Z,53.56
2018-09-02T07:08:52.373Z,52.88
2018-09-02T07:09:57.501Z,53.20
2018-09-02T07:11:02.159Z,52.85
2018-09-02T07:12:06.801Z,52.99
2018-09-02T07:13:11.456Z,52.40
2018-09-02T07:14:16.143Z,52.45
2018-09-02T07:15:21.710Z,50.63
2018-09-02T07:16:27.869Z,49.79
2018-09-02T07:17:32.590Z,50.03
2018-09-02T07:18:37.242Z,49.45
2018-09-02T07:19:41.884Z,49.35
2018-09-02T07:20:47.633Z,49.38
2018-09-02T07:21:53.966Z,49.45
2018-09-02T07:22:58.584Z,47.92
2018-09-02T07:24:04.332Z,48.02
2018-09-02T07:25:08.958Z,47.02
2018-09-02T07:26:13.589Z,46.29
2018-09-02T07:27:18.355Z,46.61
2018-09-02T07:28:24.314Z,47.22
2018-09-02T07:29:29.079Z,47.03
2018-09-02T07:30:34.755Z,48.01
2018-09-02T07:31:39.845Z,47.26
2018-09-02T07:32:45.797Z,46.75
2018-09-02T07:33:50.581Z,46.40
2018-09-02T07:34:55.781Z,46.53
2018-09-02T07:36:00.663Z,45.88
2018-09-02T07:37:05.664Z,45.60
2018-09-02T07:38:10.472Z,45.48
2018-09-02T07:39:15.259Z,45.09
2018-09-02T07:40:21.678Z,45.46
2018-09-02T07:41:27.804Z,45.45
2018-09-02T07:42:32.775Z,45.07
2018-09-02T07:43:37.664Z,45.54
2018-09-02T07:44:42.822Z,45.18
2018-09-02T07:45:48.469Z,45.16
2018-09-02T07:46:53.726Z,44.44
2018-09-02T07:47:59.068Z,44.79
2018-09-02T07:49:03.797Z,46.29
2018-09-02T07:50:08.573Z,45.22
2018-09-02T07:51:15.134Z,46.24
2018-09-02T07:52:21.454Z,45.88
2018-09-02T07:53:26.203Z,45.47
2018-09-02T07:54:31.657Z,44.63
2018-09-02T07:55:36.756Z,45.25
2018-09-02T07:56:41.429Z,46.04
2018-09-02T07:57:46.054Z,45.82
2018-09-02T07:58:50.703Z,46.24
2018-09-02T07:59:55.410Z,45.46
2018-09-02T08:01:00.447Z,46.04
2018-09-02T08:02:05.099Z,45.58
2018-09-02T08:03:10.465Z,46.08
2018-09-02T08:04:16.055Z,46.95
2018-09-02T08:05:21.622Z,47.17
2018-09-02T08:06:26.707Z,46.98
2018-09-02T08:07:31.781Z,46.58
2018-09-02T08:08:36.449Z,46.63
2018-09-02T08:09:41.582Z,46.69
2018-09-02T08:10:46.217Z,46.65
2018-09-02T08:11:51.882Z,46.98
2018-09-02T08:12:57.555Z,47.12
2018-09-02T08:14:03.479Z,47.70
2018-09-02T08:15:11.197Z,48.05
2018-09-02T08:16:16.044Z,47.19
2018-09-02T08:17:20.825Z,47.01
2018-09-02T08:18:26.531Z,47.50
2018-09-02T08:19:31.448Z,47.75
2018-09-02T08:20:38.358Z,47.60
2018-09-02T08:21:44.111Z,47.82
2018-09-02T08:22:49.019Z,47.76
2018-09-02T08:23:53.781Z,48.04
2018-09-02T08:24:58.592Z,48.07
2018-09-02T08:26:03.345Z,48.81
2018-09-02T08:27:08.493Z,49.36
2018-09-02T08:28:13.342Z,48.95
2018-09-02T08:29:18.978Z,49.03
2018-09-02T08:30:23.749Z,49.35
2018-09-02T08:31:29.710Z,48.62
2018-09-02T08:32:36.225Z,48.48
2018-09-02T08:33:40.909Z,47.82
2018-09-02T08:34:46.332Z,47.95
2018-09-02T08:35:50.984Z,48.92
2018-09-02T08:36:56.210Z,49.29
2018-09-02T08:38:00.877Z,48.66
2018-09-02T08:39:07.399Z,49.53
2018-09-02T08:40:13.322Z,48.43
2018-09-02T08:41:18.046Z,48.23
2018-09-02T08:42:23.682Z,49.29
2018-09-02T08:43:30.064Z,49.88
2018-09-02T08:44:34.736Z,50.78
2018-09-02T08:45:40.760Z,50.90
2018-09-02T08:46:45.414Z,50.46
2018-09-02T08:47:50.181Z,49.75
2018-09-02T08:48:54.801Z,49.65
2018-09-02T08:50:01.680Z,49.72
2018-09-02T08:51:08.130Z,49.68
2018-09-02T08:52:14.284Z,49.84
2018-09-02T08:53:20.008Z,49.74
2018-09-02T08:54:24.792Z,49.70
2018-09-02T08:55:30.410Z,49.81
2018-09-02T08:56:36.528Z,48.58
2018-09-02T08:57:41.168Z,49.35
2018-09-02T08:58:49.136Z,49.47
2018-09-02T08:59:53.792Z,49.59
2018-09-02T09:00:59.342Z,49.76
2018-09-02T09:02:04.577Z,48.92
2018-09-02T09:03:09.397Z,48.23
2018-09-02T09:04:14.151Z,47.91
2018-09-02T09:05:19.126Z,48.14
2018-09-02T09:06:24.690Z,47.77
2018-09-02T09:07:31.462Z,48.43
2018-09-02T09:08:36.233Z,49.24
2018-09-02T09:09:41.533Z,48.34
2018-09-02T09:10:47.270Z,48.74
2018-09-02T09:11:53.531Z,49.57
2018-09-02T09:12:58.284Z,49.03
2018-09-02T09:14:04.647Z,49.33
2018-09-02T09:15:09.339Z,49.25
2018-09-02T09:16:17.124Z,49.61
2018-09-02T09:17:22.875Z,49.59
2018-09-02T09:18:29.362Z,49.16
2018-09-02T09:19:34.252Z,49.57
2018-09-02T09:20:39.555Z,48.40
2018-09-02T09:21:44.363Z,47.20
2018-09-02T09:22:49.093Z,45.86
2018-09-02T09:23:54.408Z,46.81
2018-09-02T09:25:01.644Z,46.50
2018-09-02T09:26:07.317Z,46.96
2018-09-02T09:27:11.985Z,47.21
2018-09-02T09:28:16.750Z,47.26
2018-09-02T09:29:21.423Z,46.98
2018-09-02T09:30:27.440Z,47.01
2018-09-02T09:31:32.379Z,47.59
2018-09-02T09:32:38.362Z,47.95
2018-09-02T09:33:43.086Z,48.02
2018-09-02T09:34:47.698Z,47.56
2018-09-02T09:35:52.378Z,48.34
2018-09-02T09:36:57.991Z,47.70
2018-09-02T09:38:02.773Z,48.14
2018-09-02T09:39:08.449Z,47.59
2018-09-02T09:40:14.247Z,47.74
2018-09-02T09:41:19.492Z,47.76
2018-09-02T09:42:25.462Z,48.11
2018-09-02T09:43:33.759Z,46.77
2018-09-02T09:44:38.765Z,46.34
2018-09-02T09:45:43.774Z,45.72
2018-09-02T09:46:49.238Z,45.31
2018-09-02T09:47:56.203Z,45.40
2018-09-02T09:49:00.850Z,44.62
2018-09-02T09:50:06.526Z,44.55
2018-09-02T09:51:12.012Z,43.73
2018-09-02T09:52:16.997Z,42.80
2018-09-02T09:53:22.618Z,42.55
2018-09-02T09:54:27.360Z,42.78
2018-09-02T09:55:33.328Z,42.75
2018-09-02T09:56:38.385Z,41.99
2018-09-02T09:57:43.812Z,42.85
2018-09-02T09:58:49.873Z,42.53
2018-09-02T09:59:58.054Z,41.96
2018-09-02T10:01:02.804Z,41.74
2018-09-02T10:02:09.394Z,41.46
2018-09-02T10:03:15.379Z,42.02
2018-09-02T10:04:20.240Z,41.72
2018-09-02T10:05:25.391Z,41.45
2018-09-02T10:06:30.075Z,40.60
2018-09-02T10:07:35.808Z,40.48
2018-09-02T10:08:41.261Z,40.69
2018-09-02T10:09:47.448Z,40.33
2018-09-02T10:10:52.939Z,40.73
2018-09-02T10:11:58.564Z,40.62
2018-09-02T10:13:03.464Z,40.41
2018-09-02T10:14:10.011Z,40.27
2018-09-02T10:15:15.905Z,40.10
2018-09-02T10:16:21.895Z,39.71
2018-09-02T10:17:27.635Z,39.36
2018-09-02T10:18:32.412Z,39.31
2018-09-02T10:19:37.101Z,39.16
2018-09-02T10:20:42.339Z,39.16
2018-09-02T10:21:47.020Z,39.08
2018-09-02T10:22:52.036Z,38.96
2018-09-02T10:23:57.585Z,38.56
2018-09-02T10:25:02.257Z,38.42
2018-09-02T10:26:08.962Z,38.32
2018-09-02T10:27:13.639Z,38.59
2018-09-02T10:28:20.239Z,38.58
2018-09-02T10:29:25.393Z,38.83
2018-09-02T10:32:22.324Z,39.07
2018-09-02T10:33:28.536Z,39.55
2018-09-02T10:34:34.239Z,39.30
2018-09-02T10:35:40.982Z,38.56
2018-09-02T10:36:47.418Z,38.97
2018-09-02T10:37:53.078Z,38.99
2018-09-02T10:38:57.751Z,38.48
2018-09-02T10:40:02.487Z,38.74
2018-09-02T10:41:08.892Z,38.57
2018-09-02T10:42:14.606Z,39.16
2018-09-02T10:43:19.255Z,38.59
2018-09-02T10:44:28.558Z,39.13
2018-09-02T10:45:34.989Z,38.79
2018-09-02T10:46:44.689Z,37.59
2018-09-02T10:47:49.747Z,37.45
2018-09-02T10:48:54.896Z,36.25
2018-09-02T10:49:59.632Z,36.64
2018-09-02T10:51:04.582Z,36.73
2018-09-02T10:52:11.347Z,35.76
2018-09-02T10:53:16.032Z,37.18
2018-09-02T10:54:21.631Z,38.04
2018-09-02T10:55:26.627Z,38.92
2018-09-02T10:56:31.269Z,38.71
2018-09-02T10:57:36.697Z,39.33
2018-09-02T10:58:42.284Z,39.45
2018-09-02T10:59:50.095Z,39.00
2018-09-02T11:00:54.750Z,38.88
2018-09-02T11:02:00.306Z,38.21
2018-09-02T11:03:05.017Z,38.37
2018-09-02T11:04:10.290Z,39.39
2018-09-02T11:05:14.981Z,39.34
2018-09-02T11:06:20.146Z,39.44
2018-09-02T11:07:25.970Z,39.34
2018-09-02T11:08:31.776Z,38.90
2018-09-02T11:09:38.389Z,38.18
2018-09-02T11:10:43.009Z,38.19
2018-09-02T11:11:47.689Z,39.20
2018-09-02T11:12:52.383Z,39.22
2018-09-02T11:13:58.456Z,39.11
2018-09-02T11:15:03.872Z,37.81
2018-09-02T11:16:09.498Z,37.73
2018-09-02T11:17:14.610Z,38.42
2018-09-02T11:18:19.456Z,38.24
2018-09-02T11:19:24.336Z,37.96
2018-09-02T11:20:29.288Z,38.83
2018-09-02T11:22:40.007Z,39.57
2018-09-02T11:23:47.761Z,39.02
2018-09-02T11:24:52.518Z,38.76
2018-09-02T11:25:57.438Z,38.91
2018-09-02T11:27:02.292Z,38.07
2018-09-02T11:28:09.305Z,38.25
2018-09-02T11:29:14.825Z,38.64
2018-09-02T11:30:20.388Z,39.12
2018-09-02T11:31:25.999Z,38.80
2018-09-02T11:32:37.655Z,38.93
2018-09-02T11:33:50.277Z,39.56
2018-09-02T11:34:57.249Z,38.69
2018-09-02T11:36:02.667Z,38.85
2018-09-02T11:37:07.326Z,38.14
2018-09-02T11:38:13.297Z,38.71
2018-09-02T11:39:18.655Z,38.93
2018-09-02T11:40:25.719Z,39.74
2018-09-02T11:41:31.640Z,39.62
2018-09-02T11:42:38.792Z,39.98
2018-09-02T11:43:43.542Z,40.78
2018-09-02T11:44:49.919Z,40.06
2018-09-02T11:45:55.293Z,40.54
2018-09-02T11:47:00.932Z,40.52
2018-09-02T11:48:06.168Z,40.52
2018-09-02T11:49:11.642Z,40.10
2018-09-02T11:50:19.537Z,40.64
2018-09-02T11:51:24.195Z,40.84
2018-09-02T11:52:30.309Z,40.79
2018-09-02T11:53:35.502Z,40.66
2018-09-02T11:54:40.444Z,40.87
2018-09-02T11:55:46.504Z,40.82
2018-09-02T11:56:51.751Z,40.68
2018-09-02T11:57:57.061Z,40.29
2018-09-02T11:59:02.561Z,40.36
2018-09-02T12:00:08.945Z,39.75
2018-09-02T12:01:14.774Z,40.51
2018-09-02T12:02:19.598Z,40.37
2018-09-02T12:03:24.229Z,40.45
2018-09-02T12:04:32.830Z,39.87
2018-09-02T12:05:38.106Z,40.17
2018-09-02T12:06:42.746Z,39.71
2018-09-02T12:07:48.346Z,39.94
2018-09-02T12:08:53.728Z,39.84
2018-09-02T12:09:59.274Z,39.89
2018-09-02T12:11:04.437Z,40.37
2018-09-02T12:12:10.263Z,40.00
2018-09-02T12:13:23.200Z,40.54
2018-09-02T12:14:29.454Z,40.79
2018-09-02T12:15:34.979Z,40.49
2018-09-02T12:16:39.824Z,40.56
2018-09-02T12:17:44.570Z,40.95
2018-09-02T12:18:50.364Z,40.42
2018-09-02T12:19:55.517Z,41.05
2018-09-02T12:21:00.211Z,41.11
2018-09-02T12:22:06.606Z,41.19
2018-09-02T12:23:11.246Z,40.96
2018-09-02T12:24:16.556Z,40.93
2018-09-02T12:25:23.536Z,40.56
2018-09-02T12:26:28.198Z,40.95
2018-09-02T12:27:34.369Z,40.62
2018-09-02T12:28:39.190Z,40.61
2018-09-02T12:29:43.845Z,40.59
2018-09-02T12:30:48.572Z,40.50
2018-09-02T12:31:54.271Z,40.62
2018-09-02T12:32:59.273Z,40.75
2018-09-02T12:34:04.683Z,40.77
2018-09-02T12:35:09.343Z,41.24
2018-09-02T12:36:16.841Z,41.53
2018-09-02T12:37:21.512Z,41.00
2018-09-02T12:38:27.361Z,40.90
2018-09-02T12:39:32.033Z,41.60
2018-09-02T12:40:37.994Z,40.72
2018-09-02T12:41:48.066Z,40.13
2018-09-02T12:42:55.357Z,39.88
2018-09-02T12:44:02.913Z,39.83
2018-09-02T12:45:08.237Z,39.42
2018-09-02T12:46:14.660Z,38.56
2018-09-02T12:47:19.345Z,39.46
2018-09-02T12:48:24.708Z,38.65
2018-09-02T12:49:30.706Z,39.62
2018-09-02T12:50:37.164Z,39.18
2018-09-02T12:51:42.384Z,38.52
2018-09-02T12:52:47.204Z,38.77
2018-09-02T12:53:51.908Z,38.84
2018-09-02T12:56:15.533Z,38.64
2018-09-02T12:57:20.883Z,39.54
2018-09-02T12:58:25.542Z,39.10
2018-09-02T12:59:30.329Z,39.24
2018-09-02T13:00:35.553Z,38.52
2018-09-02T13:01:42.094Z,37.69
2018-09-02T13:02:47.360Z,35.81
2018-09-02T13:03:53.347Z,34.44
2018-09-02T13:04:58.169Z,33.80
2018-09-02T13:06:03.058Z,33.04
2018-09-02T13:07:13.168Z,32.63
2018-09-02T13:08:17.977Z,32.02
2018-09-02T13:09:23.678Z,32.13
2018-09-02T13:10:29.280Z,31.34
2018-09-02T13:11:34.724Z,31.45
2018-09-02T13:12:40.653Z,32.65
2018-09-02T13:13:49.154Z,33.75
2018-09-02T13:14:56.368Z,34.55
2018-09-02T13:16:02.645Z,35.80
2018-09-02T13:17:07.855Z,35.62
2018-09-02T13:18:13.739Z,36.09
2018-09-02T13:19:19.807Z,35.35
2018-09-02T13:20:26.108Z,35.64
2018-09-02T13:21:32.830Z,36.28
2018-09-02T13:23:50.779Z,37.39
2018-09-02T13:24:56.005Z,37.26
2018-09-02T13:26:00.705Z,37.72
2018-09-02T13:27:06.150Z,38.13
2018-09-02T13:28:10.891Z,38.50
2018-09-02T13:29:16.112Z,37.73
2018-09-02T13:30:20.942Z,37.83
2018-09-02T13:31:25.952Z,36.97
2018-09-02T13:32:31.994Z,36.77
2018-09-02T13:33:37.385Z,37.21
2018-09-02T13:34:42.992Z,37.19
2018-09-02T13:35:48.241Z,37.47
2018-09-02T13:36:53.335Z,38.26
2018-09-02T13:37:58.113Z,38.86
2018-09-02T13:39:03.048Z,37.80
2018-09-02T13:40:08.584Z,37.57
2018-09-02T13:41:13.680Z,38.80
2018-09-02T13:42:18.709Z,38.82
2018-09-02T13:43:25.264Z,38.43
2018-09-02T13:44:30.469Z,39.00
2018-09-02T13:45:35.359Z,38.66
2018-09-02T13:46:40.049Z,39.11
2018-09-02T13:47:45.539Z,38.32
2018-09-02T13:48:51.316Z,38.47
2018-09-02T13:49:56.720Z,38.98
2018-09-02T13:51:02.181Z,39.44
2018-09-02T13:52:07.595Z,39.53
2018-09-02T13:53:14.090Z,39.09
2018-09-02T13:54:19.283Z,39.18
2018-09-02T13:55:23.936Z,39.20
2018-09-02T13:57:41.811Z,40.01
2018-09-02T13:58:48.802Z,40.14
2018-09-02T13:59:54.341Z,39.10
2018-09-02T14:00:59.524Z,39.79
2018-09-02T14:02:04.267Z,39.84
2018-09-02T14:03:09.026Z,40.55
2018-09-02T14:04:15.532Z,40.81
2018-09-02T14:05:20.183Z,40.34
2018-09-02T14:06:24.916Z,40.40
2018-09-02T14:07:30.797Z,40.42
2018-09-02T14:08:36.552Z,41.26
2018-09-02T14:09:41.861Z,40.84